Pottsboro, Texas
Current Conditions -  °F | °C
As of 2:55 AM on Wednesday 26 Nov 2014 (Local Time) from KGYI Reporting Station
Clear Clear  
Wind Chill:   Ceiling: Unl
Heat Index: 10°   Visibility: 10mi
Dew Point:   Wind: 14mph
Humidity: 50%   Direction: 200°SSW
Pressure: 30.03"   Gusts: NA
Location:  33.76°N, 96.67°W
Report Text: KGYI 260855Z AUTO 20012KT 10SM CLR 10/00 A3003 RMK AO2 T00961003
Loading
Personal Weather Stations






























Interactive Weather Map New forecast layout! Learn more

10-Day Weather Forecast

Advertisements
Track Severe Weather on mobile